Terminal Aerodrome Forecast
Issued by NWS

Home | Current Version | Previous Version | Text Only | Print | Product List | Glossary On
Versions: 1 2 3 4 5 6 7 8 9 10 11 12
000
FTUS46 KLOX 192300
TAFBUR
TAF
KBUR 192335Z 2000/2024 VRB03KT P6SM SCT025 BKN150
     FM200800 VRB03KT P6SM SCT025 BKN120
     FM202000 18007KT P6SM SCT040=

USA.gov is the U.S. government's official web portal to all federal, state and local government web resources and services.